Terminal Aerodrome Forecast
Issued by NWS

Home | Current Version | Previous Version | Text Only | Print | Product List | Glossary On
Versions: 1 2 3 4 5 6 7 8 9 10 11 12 13 14 15 16 17
000
FTUS43 KDDC 091727
TAFGCK
TAF
KGCK 091727Z 0918/1018 17014G21KT P6SM OVC027
     FM092000 18012G20KT P6SM FEW200
     FM092300 16007KT P6SM FEW200=

USA.gov is the U.S. government's official web portal to all federal, state and local government web resources and services.